Laurence M. Gould — WCX7445 — position and weather

sailwx.info

Track history (hours):
 
Tides and Currents Weather Stations Pressure Air Temp Water Temp Dewpoint Dewpoint Depression Visibility Wind Speed Wind Dir Waves Ship Positions

Oceanographic research ship Laurence M. Gould (USA)

Detailed information on ship capabilities available from University of Delaware's Ocean Information Center.

Owner: Offshore Service Vessels LLC, GALLIANO, LA. More information available from US FCC via Universal Licensing System and Coast Guard Vessel Documentation Center.

Last reported at 2016-Sep-03 15:00 UTC. Time now 2016-Sep-26 19:03 UTC.
Position S 53°06' W 070°54'.
Warning: this ship's position is 23 days out of date.

Type: Ship. MMSI: 368138000.

Wind from 040 at 9 knots

Barometer 1036.5 mb
Air temperature 4.4 ° C
Dewpoint 0.7 ° C

Date/timePositionNaut miles runAvg speedWind from/ knotsBaromVisibWave heightAir tempDewpointWater temp
2016-Sep-03 15:00S 53°06' W 070°54'0 0.0 040 / 91036.5 4.4 0.7
2016-Sep-03 14:00S 53°06' W 070°54'0 0.0 030 / 61037.2 4.1 0.5
2016-Sep-03 13:00S 53°06' W 070°54'0 0.0 010 / 41037.7 3.9 0.2
2016-Sep-03 12:00S 53°06' W 070°54'0 0.0 330 / 51037.8 2.0-1.0
2016-Sep-03 11:00S 53°06' W 070°54'0 0.0 330 / 31037.7 1.4-1.9
2016-Sep-03 10:00S 53°06' W 070°54'0 0.0 270 / 41038.1 0.8-1.9
2016-Sep-03 09:00S 53°06' W 070°54'0 0.0 260 / 11038.3 0.9-1.9
2016-Sep-03 08:00S 53°06' W 070°54'0 0.0 340 / 31038.6 2.5-1.4
2016-Sep-03 07:00S 53°06' W 070°54'0 0.0 010 / 51039.0 3.4-0.6
2016-Sep-03 06:00S 53°06' W 070°54'0 0.0 350 / 51039.4 2.9-0.3
2016-Sep-03 05:00S 53°06' W 070°54'0 0.0 340 / 41039.5 3.2-0.0
2016-Sep-03 04:00S 53°06' W 070°54'0 0.0 330 / 41039.5 3.2-0.0
2016-Sep-03 03:00S 53°06' W 070°54'0 0.0 300 / 31039.4 3.2-0.2
2016-Sep-03 02:00S 53°06' W 070°54'0 0.0 270 / 21039.3 3.9 0.2
2016-Sep-03 01:00S 53°06' W 070°54'0 0.0 260 / 11039.0 4.7 0.2
2016-Sep-03 00:00S 53°06' W 070°54'0 0.0 290 / 31038.9 5.6 0.2
2016-Sep-02 23:00S 53°06' W 070°54'0 0.0 340 / 51038.6 6.6 1.0
2016-Sep-02 22:00S 53°06' W 070°54'0 0.0 010 / 41038.0 7.3 1.1
2016-Sep-02 21:00S 53°06' W 070°54'0 0.0 070 / 41037.7 8.0 1.7
2016-Sep-02 20:00S 53°06' W 070°54'0 0.0 090 / 41037.5 8.6 1.6
2016-Sep-02 19:00S 53°06' W 070°54'0 0.0 130 / 51037.2 9.6 1.6
2016-Sep-02 18:00S 53°06' W 070°54'0 0.0 130 / 61037.4 9.5 1.0
2016-Sep-02 17:00S 53°06' W 070°54'0 0.0 200 / 121037.4 8.3-0.1
2016-Sep-02 16:00S 53°06' W 070°54'0 0.0 180 / 91037.1 9.0-0.0
2016-Sep-02 15:00S 53°06' W 070°54'0 0.0 190 / 81036.5 8.1 0.2
2016-Sep-02 14:00S 53°06' W 070°54'0 0.0 200 / 41036.1 7.3-0.0
2016-Sep-02 13:00S 53°06' W 070°54'0 0.0 250 / 11035.7 8.1-0.0
2016-Sep-02 12:00S 53°06' W 070°54'0 0.0 250 / 51034.8 5.2-0.1
2016-Sep-02 11:00S 53°06' W 070°54'0 0.0 270 / 21034.2 5.2-0.2
2016-Sep-02 10:00S 53°06' W 070°54'0 0.0 240 / 31033.7 5.1-0.2
2016-Sep-02 09:00S 53°06' W 070°54'0 0.0 260 / 51033.0 5.2-0.0
2016-Sep-02 08:00S 53°06' W 070°54'0 0.0 250 / 31032.3 5.7 0.3
2016-Sep-02 07:00S 53°06' W 070°54'0 0.0 230 / 91031.5 6.3 0.5
2016-Sep-02 06:00S 53°06' W 070°54'0 0.0 240 / 111031.2 6.5 0.4
2016-Sep-02 05:00S 53°06' W 070°54'0 0.0 240 / 81030.9 6.4 0.5
2016-Sep-02 04:00S 53°06' W 070°54'0 0.0 260 / 71030.0 6.4 0.5
2016-Sep-02 03:00S 53°06' W 070°54'0 0.0 230 / 91029.1 6.7 0.7
2016-Sep-02 02:00S 53°06' W 070°54'0 0.0 240 / 111028.2 6.9 0.9
2016-Sep-02 01:00S 53°06' W 070°54'0 0.0 240 / 131027.2 6.9 1.1
2016-Sep-02 00:00S 53°06' W 070°54'0 0.0 250 / 101026.5 6.7 1.4
2016-Sep-01 23:00S 53°06' W 070°54'0 0.0 250 / 111025.7 6.9 1.5
2016-Sep-01 22:00S 53°06' W 070°54'0 0.0 250 / 131024.5 7.5 1.6
2016-Sep-01 21:00S 53°06' W 070°54'0 0.0 250 / 161023.4 8.1 1.6
2016-Sep-01 20:00S 53°06' W 070°54'0 0.0 250 / 151022.4 8.6 1.2
2016-Sep-01 19:00S 53°06' W 070°54'0 0.0 240 / 161021.3 8.5 0.9
2016-Sep-01 18:00S 53°06' W 070°54'0 0.0 240 / 171020.5 8.1 0.7
2016-Sep-01 17:00S 53°06' W 070°54'0 0.0 240 / 171019.4 8.2 0.3
2016-Sep-01 16:00S 53°06' W 070°54'0 0.0 240 / 171018.3 8.0 0.4
2016-Sep-01 15:00S 53°06' W 070°54'0 0.0 240 / 161017.2 8.1 0.3
2016-Sep-01 14:00S 53°06' W 070°54'0 0.0 250 / 161016.2 7.7 0.2
2016-Sep-01 13:00S 53°06' W 070°54'0 0.0 250 / 141015.2 7.1 0.3
2016-Sep-01 12:00S 53°06' W 070°54'0 0.0 240 / 131014.4 6.5 0.4
2016-Sep-01 11:00S 53°06' W 070°54'0 0.0 240 / 131013.4 6.3 0.1
2016-Sep-01 10:00S 53°06' W 070°54'0 0.0 250 / 131012.4 6.2-0.0
2016-Sep-01 09:00S 53°06' W 070°54'0 0.0 240 / 131011.8 6.5-0.0
2016-Sep-01 08:00S 53°06' W 070°54'0 0.0 230 / 121010.9 6.4 0.3
2016-Sep-01 07:00S 53°06' W 070°54'0 0.0 240 / 121009.9 6.3 0.2
2016-Sep-01 06:00S 53°06' W 070°54'0 0.0 250 / 141008.9 6.3 0.3
2016-Sep-01 05:00S 53°06' W 070°54'0 0.0 250 / 141008.1 6.2 0.4
2016-Sep-01 04:00S 53°06' W 070°54'0 0.0 260 / 71007.3 5.8 0.5
2016-Sep-01 03:00S 53°06' W 070°54'0 0.0 280 / 91006.8 5.3 1.0
2016-Sep-01 02:00S 53°06' W 070°54'0 0.0 270 / 151006.1 5.0 1.1
2016-Sep-01 01:00S 53°06' W 070°54'0 0.0 270 / 141005.6 4.9 0.7
2016-Sep-01 00:00S 53°06' W 070°54'0 0.0 280 / 111005.8 4.9-0.0
2016-Aug-31 23:00S 53°06' W 070°54'0 0.0 270 / 131005.5 5.4-0.0
2016-Aug-31 22:00S 53°06' W 070°54'0 0.0 280 / 121004.8 5.9 0.5
2016-Aug-31 21:00S 53°06' W 070°54'0 0.0 280 / 131004.3 6.4 0.7
2016-Aug-31 20:00S 53°06' W 070°54'0 0.0 270 / 161003.7 6.9 0.2
2016-Aug-31 19:00S 53°06' W 070°54'0 0.0 260 / 151003.2 7.5-1.4
2016-Aug-31 18:00S 53°06' W 070°54'0 0.0 250 / 161003.1 7.4-1.7
2016-Aug-31 17:00S 53°06' W 070°54'0 0.0 250 / 111003.1 6.7-0.3
2016-Aug-31 16:00S 53°06' W 070°54'0 0.0 250 / 111002.8 7.3-0.1
2016-Aug-31 15:00S 53°06' W 070°54'0 0.0 270 / 61002.5 7.5-0.2
2016-Aug-31 14:00S 53°06' W 070°54'0 0.0 290 / 61002.3 5.3-0.0
2016-Aug-31 13:00S 53°06' W 070°54'0 0.0 280 / 91001.8 3.9-0.2
2016-Aug-31 12:00S 53°06' W 070°54'0 0.0 280 / 101001.6 3.4-0.7
2016-Aug-31 11:00S 53°06' W 070°54'0 0.0 290 / 141001.5 3.0-1.6
2016-Aug-31 10:00S 53°06' W 070°54'0 0.0 280 / 121001.3 2.9-2.7
2016-Aug-31 09:00S 53°06' W 070°54'0 0.0 290 / 91000.8 2.6-3.6
2016-Aug-31 08:00S 53°06' W 070°54'0 0.0 280 / 81000.1 2.7-3.1
2016-Aug-31 07:00S 53°06' W 070°54'0 0.0 290 / 7999.7 2.5-1.6
2016-Aug-31 06:00S 53°06' W 070°54'0 0.0 280 / 8998.7 2.5-1.3
2016-Aug-31 05:00S 53°06' W 070°54'0 0.0 260 / 10997.3 2.8-1.1
2016-Aug-31 04:00S 53°06' W 070°54'0 0.0 260 / 7996.1 2.7-1.0
2016-Aug-31 03:00S 53°06' W 070°54'0 0.0 270 / 9994.6 2.8-1.0
2016-Aug-31 02:00S 53°06' W 070°54'0 0.0 260 / 17992.9 2.8-1.3
2016-Aug-31 01:00S 53°06' W 070°54'0 0.0 270 / 18991.2 2.8-1.4
2016-Aug-31 00:00S 53°06' W 070°54'0 0.0 270 / 18990.0 2.6-1.5
2016-Aug-30 23:00S 53°06' W 070°54'0 0.0 270 / 15989.4 2.4-2.0
2016-Aug-30 22:00S 53°06' W 070°54'0 0.0 270 / 20988.5 2.4-2.0
2016-Aug-30 21:00S 53°06' W 070°54'0 0.0 270 / 16988.2 2.9-2.1
2016-Aug-30 20:00S 53°06' W 070°54'0 0.0 270 / 18987.7 3.2-2.6
2016-Aug-30 19:00S 53°06' W 070°54'0 0.0 280 / 22986.7 3.6-2.8
2016-Aug-30 18:00S 53°06' W 070°54'0 0.0 280 / 26985.7 3.6-2.7
2016-Aug-30 17:00S 53°06' W 070°54'0 0.0 280 / 23985.3 4.0-2.7
2016-Aug-30 16:00S 53°06' W 070°54'0 0.0 270 / 22984.8 3.8-2.8
2016-Aug-30 15:00S 53°06' W 070°54'0 0.0 270 / 24983.9 3.4-3.0
2016-Aug-30 14:00S 53°06' W 070°54'0 0.0 280 / 22983.8 2.7-1.6
2016-Aug-30 13:00S 53°06' W 070°54'0 0.0 290 / 18983.8 1.4-1.2
2016-Aug-30 12:00S 53°06' W 070°54'0 0.0 290 / 20983.0 2.1-1.2
2016-Aug-30 11:00S 53°06' W 070°54'0 0.0 290 / 22982.2 2.1-1.4
2016-Aug-30 10:00S 53°06' W 070°54'0 0.0 300 / 23981.8 2.2-1.1
2016-Aug-30 09:00S 53°06' W 070°54'0 0.0 300 / 22981.6 2.2-1.3
2016-Aug-30 08:00S 53°06' W 070°54'0 0.0 300 / 18982.0 2.7-1.8
2016-Aug-30 07:00S 53°06' W 070°54'0 0.0 300 / 14982.2 3.0-1.2
2016-Aug-30 06:00S 53°06' W 070°54'0 0.0 300 / 15982.1 3.4-0.8
2016-Aug-30 05:00S 53°06' W 070°54'0 0.0 290 / 14981.8 3.6-0.9
2016-Aug-30 04:00S 53°06' W 070°54'0 0.0 280 / 23981.0 4.1-0.6
2016-Aug-30 03:00S 53°06' W 070°54'0 0.0 280 / 25980.2 4.8-0.0
2016-Aug-30 02:00S 53°06' W 070°54'0 0.0 280 / 28979.2 5.3 0.4
2016-Aug-30 01:00S 53°06' W 070°54'0 0.0 280 / 31977.7 6.1 0.6
2016-Aug-30 00:00S 53°06' W 070°54'0 0.0 290 / 22977.1 6.9 2.1
2016-Aug-29 23:00S 53°06' W 070°54'0 0.0 300 / 20975.9 7.8 2.3
2016-Aug-29 22:00S 53°06' W 070°54'0 0.0 320 / 11976.0 8.6 2.7
2016-Aug-29 21:00S 53°06' W 070°54'0 0.0 300 / 16975.0 9.5 2.7
2016-Aug-29 20:00S 53°06' W 070°54'0 0.0 300 / 19973.9 9.8 2.5
2016-Aug-29 19:00S 53°06' W 070°54'0 0.0 300 / 25973.7 10.8 2.6
2016-Aug-29 18:00S 53°06' W 070°54'0 0.0 300 / 24973.9 11.6 2.6
2016-Aug-29 12:00S 53°06' W 070°54'0 0.0 060 / 7983.7 6.0 3.5
2016-Aug-29 11:00S 53°06' W 070°54'0 0.0 030 / 7985.6 5.4 2.9
2016-Aug-29 10:00S 53°06' W 070°54'0 0.0 040 / 3987.7 5.4 3.3
2016-Aug-29 09:00S 53°06' W 070°54'0 0.0 050 / 2989.6 5.7 3.6
2016-Aug-29 08:00S 53°06' W 070°54'0 0.0 030 / 4991.6 5.7 3.7
2016-Aug-29 07:00S 53°06' W 070°54'0 0.0 030 / 4993.8 5.5 3.5
2016-Aug-29 06:00S 53°06' W 070°54'0 0.0 010 / 3995.3 5.6 3.5
2016-Aug-29 05:00S 53°06' W 070°54'0 0.0 020 / 5996.6 5.8 3.7
2016-Aug-29 04:00S 53°06' W 070°54'0 0.0 010 / 5997.8 5.7 3.8
2016-Aug-29 03:00S 53°06' W 070°54'0 0.0 360 / 5999.2 5.8 3.7
2016-Aug-29 02:00S 53°06' W 070°54'0 0.0 350 / 61000.3 5.7 3.8
2016-Aug-29 01:00S 53°06' W 070°54'0 0.0 350 / 91000.9 5.7 3.9
2016-Aug-29 00:00S 53°06' W 070°54'0 0.0 010 / 91001.6 5.8 4.2
2016-Aug-28 23:00S 53°06' W 070°54'0 0.0 010 / 101002.4 5.9 4.5
2016-Aug-28 22:00S 53°06' W 070°54'0 0.0 030 / 111002.9 6.5 5.0
2016-Aug-28 21:00S 53°06' W 070°54'0 0.0 030 / 91003.3 7.2 5.2
2016-Aug-28 20:00S 53°06' W 070°54'0 0.0 010 / 81003.7 7.5 4.7
2016-Aug-28 19:00S 53°06' W 070°54'0 0.0 020 / 91004.1 7.0 4.0
2016-Aug-28 18:00S 53°06' W 070°54'0 0.0 020 / 111004.6 7.1 2.7
2016-Aug-28 17:00S 53°06' W 070°54'0 0.0 010 / 101005.4 6.1 2.1
2016-Aug-28 16:00S 53°06' W 070°54'0 0.0 010 / 101005.9 5.0 2.3
2016-Aug-28 15:00S 53°06' W 070°54'0 0.0 010 / 81006.5 4.1 2.1
2016-Aug-28 14:00S 53°06' W 070°54'0 0.0 010 / 61007.1 3.6 1.7
2016-Aug-28 13:00S 53°06' W 070°54'0 0.0 010 / 31007.3 3.2 1.2
2016-Aug-28 12:00S 53°06' W 070°54'0 0.0 010 / 51007.3 3.0 0.8
2016-Aug-28 11:00S 53°06' W 070°54'0 0.0 010 / 51007.7 3.2 0.6
2016-Aug-28 10:00S 53°06' W 070°54'0 0.0 360 / 51008.0 3.2 0.5
2016-Aug-28 09:00S 53°06' W 070°54'0 0.0 010 / 71008.4 3.4 0.6
2016-Aug-28 08:00S 53°06' W 070°54'0 0.0 350 / 51009.1 3.8 0.9
2016-Aug-28 07:00S 53°06' W 070°54'0 0.0 010 / 71009.9 4.0 1.2
2016-Aug-28 06:00S 53°06' W 070°54'0 0.0 030 / 71010.5 4.1 1.6
2016-Aug-28 05:00S 53°06' W 070°54'0 0.0 030 / 71011.0 4.1 1.6
2016-Aug-28 04:00S 53°06' W 070°54'0 0.0 360 / 61011.7 4.7 1.9
2016-Aug-28 03:00S 53°06' W 070°54'0 0.0 360 / 71012.2 5.7 2.3
2016-Aug-28 02:00S 53°06' W 070°54'0 0.0 020 / 71012.6 6.2 3.1
2016-Aug-28 01:00S 53°06' W 070°54'0 0.0 020 / 61012.9 6.7 2.7
2016-Aug-28 00:00S 53°06' W 070°54'0 0.0 030 / 31013.0 6.8 3.4
2016-Aug-27 23:00S 53°06' W 070°54'0 0.0 020 / 41013.0 7.0 3.7
2016-Aug-27 22:00S 53°06' W 070°54'0 0.0 030 / 51013.1 7.7 3.3
2016-Aug-27 21:00S 53°06' W 070°54'0 0.0 050 / 71013.2 8.2 3.3
2016-Aug-27 20:00S 53°06' W 070°54'0 0.0 020 / 91013.3 8.7 2.2
2016-Aug-27 19:00S 53°06' W 070°54'0 0.0 350 / 101013.5 9.4 0.6
2016-Aug-27 18:00S 53°06' W 070°54'0 0.0 340 / 121013.9 8.6 0.4
2016-Aug-27 17:00S 53°06' W 070°54'0 0.0 340 / 101014.2 8.1 0.6
2016-Aug-27 16:00S 53°06' W 070°54'0 0.0 010 / 81014.2 7.3 0.2
2016-Aug-27 15:00S 53°06' W 070°54'0 0.0 040 / 71014.3 7.0 0.4
2016-Aug-27 14:00S 53°06' W 070°54'0 0.0 040 / 51014.5 4.3 0.7
2016-Aug-27 13:00S 53°06' W 070°54'0 0.0 040 / 71014.5 2.6 0.7
2016-Aug-27 12:00S 53°06' W 070°54'0 0.0 010 / 61014.3 2.5 0.3
2016-Aug-27 11:00S 53°06' W 070°54'0 0.0 020 / 31014.0 3.1 0.1
2016-Aug-27 10:00S 53°06' W 070°54'0 0.0 310 / 11013.9 2.9-0.1
2016-Aug-27 09:00S 53°06' W 070°54'0 0.0 010 / 21013.8 3.4 0.3
2016-Aug-27 08:00S 53°06' W 070°54'0 0.0 260 / 21013.8 3.7 0.4
2016-Aug-27 07:00S 53°06' W 070°54'0 0.0 300 / 61014.0 3.6 0.8
2016-Aug-27 06:00S 53°06' W 070°54'0 0.0 290 / 81014.0 3.4 0.6
2016-Aug-27 05:00S 53°06' W 070°54'0 0.0 290 / 81013.7 3.5 0.6
2016-Aug-27 04:00S 53°06' W 070°54'0 0.0 280 / 31013.7 4.2 0.4
2016-Aug-27 03:00S 53°06' W 070°54'0 0.0 290 / 11013.6 4.2 1.0
2016-Aug-27 02:00S 53°06' W 070°54'0 0.0 240 / 31013.5 4.6 1.5
2016-Aug-27 01:00S 53°06' W 070°54'0 0.0 280 / 31013.2 4.5 1.9
2016-Aug-27 00:00S 53°06' W 070°54'0 0.0 330 / 21012.8 5.4 2.6
2016-Aug-26 23:00S 53°06' W 070°54'0 0.0 310 / 31012.6 5.5 3.1
2016-Aug-26 22:00S 53°06' W 070°54'0 0.0 040 / 31012.3 6.2 2.9
2016-Aug-26 21:00S 53°06' W 070°54'0 0.0 080 / 41012.0 7.4 3.3
2016-Aug-26 20:00S 53°06' W 070°54'0 0.0 080 / 51011.8 7.3 3.1
2016-Aug-26 19:00S 53°06' W 070°54'0 0.0 080 / 51011.7 7.0 3.2
2016-Aug-26 18:00S 53°06' W 070°54'0 0.0 060 / 61011.6 6.3 2.8
2016-Aug-26 17:00S 53°06' W 070°54'0 0.0 060 / 51011.9 6.0 2.2
2016-Aug-26 16:00S 53°06' W 070°54'0 0.0 080 / 41011.9 7.3 2.4
2016-Aug-26 15:00S 53°06' W 070°54'0 0.0 080 / 21011.9 8.1 2.2
2016-Aug-26 14:00S 53°06' W 070°54'0 0.0 340 / 11011.7 7.6 1.3
2016-Aug-26 13:00S 53°06' W 070°54'0 0.0 300 / 51011.4 3.0-0.0
2016-Aug-26 12:00S 53°06' W 070°54'0 0.0 300 / 51010.8 1.5-0.6
2016-Aug-26 11:00S 53°06' W 070°54'0 0.0 300 / 51010.5 1.3-0.8
2016-Aug-26 10:00S 53°06' W 070°54'0 0.0 290 / 61010.2 1.4-0.7
2016-Aug-26 09:00S 53°06' W 070°54'0 0.0 290 / 61010.0 1.5-0.5
2016-Aug-26 08:00S 53°06' W 070°54'0 0.0 290 / 61010.0 1.6-0.4
2016-Aug-26 07:00S 53°06' W 070°54'0 0.0 290 / 51010.2 1.8-0.3
2016-Aug-26 06:00S 53°06' W 070°54'0 0.0 290 / 51010.1 2.0-0.1
2016-Aug-26 05:00S 53°06' W 070°54'0 0.0 290 / 41010.0 2.3-0.0
2016-Aug-26 04:00S 53°06' W 070°54'0 0.0 300 / 51009.8 2.7 0.1
2016-Aug-26 03:00S 53°06' W 070°54'0 0.0 300 / 61009.7 2.9 0.2
2016-Aug-26 02:00S 53°06' W 070°54'0 0.0 300 / 61009.6 3.3 0.4
2016-Aug-26 01:00S 53°06' W 070°54'0 0.0 300 / 51009.5 3.6 0.5
2016-Aug-26 00:00S 53°06' W 070°54'0 0.0 290 / 51009.2 4.1 0.6
2016-Aug-25 23:00S 53°06' W 070°54'0 0.0 080 / 21008.9 6.4 2.3
2016-Aug-25 22:00S 53°06' W 070°54'0 0.0 100 / 31008.7 8.0 2.6
2016-Aug-25 21:00S 53°06' W 070°54'0 0.0 110 / 31008.5 8.9 1.7
2016-Aug-25 20:00S 53°06' W 070°54'0 0.0 090 / 51008.1 9.8 2.3
2016-Aug-25 19:00S 53°06' W 070°54'0 0.0 080 / 51007.9 10.6 2.6
2016-Aug-25 18:00S 53°06' W 070°54'0 0.0 080 / 51008.0 10.5 2.6
2016-Aug-25 17:00S 53°06' W 070°54'0 0.0 130 / 41008.1 9.9 1.0
2016-Aug-25 16:00S 53°06' W 070°54'0 0.0 250 / 51008.0 9.0-0.0
2016-Aug-25 15:00S 53°06' W 070°54'0 0.0 240 / 51007.8 9.0 0.1
2016-Aug-25 14:00S 53°06' W 070°54'0 0.0 280 / 31007.5 8.7 0.7
2016-Aug-25 13:00S 53°06' W 070°54'0 0.0 260 / 51006.9 6.6 0.9
2016-Aug-25 12:00S 53°06' W 070°54'0 0.0 260 / 41006.4 4.7 1.2
2016-Aug-25 11:00S 53°06' W 070°54'0 0.0 290 / 81005.8 4.1 0.9
2016-Aug-25 10:00S 53°06' W 070°54'0 0.0 310 / 41005.5 4.5 0.7
2016-Aug-25 09:00S 53°06' W 070°54'0 0.0 330 / 41004.9 3.6 0.4
2016-Aug-25 08:00S 53°06' W 070°54'0 0.0 310 / 71004.6 5.4 0.6
2016-Aug-25 07:00S 53°06' W 070°54'0 0.0 330 / 91004.3 5.5 0.8
2016-Aug-25 06:00S 53°06' W 070°54'0 0.0 340 / 81004.3 5.0 0.6
2016-Aug-25 05:00S 53°06' W 070°54'0 0.0 310 / 91004.1 5.7 0.4
2016-Aug-25 04:00S 53°06' W 070°54'0 0.0 300 / 81004.0 5.8 0.4
2016-Aug-25 03:00S 53°06' W 070°54'0 0.0 300 / 71003.8 6.3 0.4
2016-Aug-25 02:00S 53°06' W 070°54'0 0.0 280 / 71003.6 7.1 0.6
2016-Aug-25 01:00S 53°06' W 070°54'0 0.0 100 / 31003.2 7.8 1.5
2016-Aug-25 00:00S 53°06' W 070°54'0 0.0 060 / 51002.9 7.5 2.6
2016-Aug-24 23:00S 53°06' W 070°54'0 0.0 340 / 21002.5 8.3 2.0
2016-Aug-24 22:00S 53°06' W 070°54'0 0.0 300 / 71002.1 8.0 1.9
2016-Aug-24 21:00S 53°06' W 070°54'0 0.0 310 / 71002.3 8.3 2.3
2016-Aug-24 20:00S 53°06' W 070°54'0 0.0 320 / 71002.3 8.7 2.8
2016-Aug-24 19:00S 53°06' W 070°54'0 0.0 040 / 41002.3 7.6 3.4
2016-Aug-24 18:00S 53°06' W 070°54'0 0.0 050 / 41002.6 8.2 3.4
2016-Aug-24 17:00S 53°06' W 070°54'0 0.0 050 / 101002.8 6.0 2.7
2016-Aug-24 16:00S 53°06' W 070°54'0 0.0 040 / 81002.9 5.5 1.9
2016-Aug-24 15:00S 53°06' W 070°54'   030 / 81003.1 5.0 1.2
Track history (hours):
 
Tides and Currents Weather Stations Pressure Air Temp Water Temp Dewpoint Dewpoint Depression Visibility Wind Speed Wind Dir Waves Ship Positions

Oceanographic research ship Laurence M. Gould (USA)

Detailed information on ship capabilities available from University of Delaware's Ocean Information Center.

Owner: Offshore Service Vessels LLC, GALLIANO, LA. More information available from US FCC via Universal Licensing System and Coast Guard Vessel Documentation Center.

Last reported at 2016-Sep-03 15:00 UTC. Time now 2016-Sep-26 19:03 UTC.
Position S 53°06' W 070°54'.
Warning: this ship's position is 23 days out of date.

Type: Ship. MMSI: 368138000.

Wind from 040 at 9 knots

Barometer 1036.5 mb
Air temperature 4.4 ° C
Dewpoint 0.7 ° C

Date/timePositionNaut miles runAvg speedWind from/ knotsBaromVisibWave heightAir tempDewpointWater temp
2016-Sep-03 15:00S 53°06' W 070°54'0 0.0 040 / 91036.5 4.4 0.7
2016-Sep-03 14:00S 53°06' W 070°54'0 0.0 030 / 61037.2 4.1 0.5
2016-Sep-03 13:00S 53°06' W 070°54'0 0.0 010 / 41037.7 3.9 0.2
2016-Sep-03 12:00S 53°06' W 070°54'0 0.0 330 / 51037.8 2.0-1.0
2016-Sep-03 11:00S 53°06' W 070°54'0 0.0 330 / 31037.7 1.4-1.9
2016-Sep-03 10:00S 53°06' W 070°54'0 0.0 270 / 41038.1 0.8-1.9
2016-Sep-03 09:00S 53°06' W 070°54'0 0.0 260 / 11038.3 0.9-1.9
2016-Sep-03 08:00S 53°06' W 070°54'0 0.0 340 / 31038.6 2.5-1.4
2016-Sep-03 07:00S 53°06' W 070°54'0 0.0 010 / 51039.0 3.4-0.6
2016-Sep-03 06:00S 53°06' W 070°54'0 0.0 350 / 51039.4 2.9-0.3
2016-Sep-03 05:00S 53°06' W 070°54'0 0.0 340 / 41039.5 3.2-0.0
2016-Sep-03 04:00S 53°06' W 070°54'0 0.0 330 / 41039.5 3.2-0.0
2016-Sep-03 03:00S 53°06' W 070°54'0 0.0 300 / 31039.4 3.2-0.2
2016-Sep-03 02:00S 53°06' W 070°54'0 0.0 270 / 21039.3 3.9 0.2
2016-Sep-03 01:00S 53°06' W 070°54'0 0.0 260 / 11039.0 4.7 0.2
2016-Sep-03 00:00S 53°06' W 070°54'0 0.0 290 / 31038.9 5.6 0.2
2016-Sep-02 23:00S 53°06' W 070°54'0 0.0 340 / 51038.6 6.6 1.0
2016-Sep-02 22:00S 53°06' W 070°54'0 0.0 010 / 41038.0 7.3 1.1
2016-Sep-02 21:00S 53°06' W 070°54'0 0.0 070 / 41037.7 8.0 1.7
2016-Sep-02 20:00S 53°06' W 070°54'0 0.0 090 / 41037.5 8.6 1.6
2016-Sep-02 19:00S 53°06' W 070°54'0 0.0 130 / 51037.2 9.6 1.6
2016-Sep-02 18:00S 53°06' W 070°54'0 0.0 130 / 61037.4 9.5 1.0
2016-Sep-02 17:00S 53°06' W 070°54'0 0.0 200 / 121037.4 8.3-0.1
2016-Sep-02 16:00S 53°06' W 070°54'0 0.0 180 / 91037.1 9.0-0.0
2016-Sep-02 15:00S 53°06' W 070°54'0 0.0 190 / 81036.5 8.1 0.2
2016-Sep-02 14:00S 53°06' W 070°54'0 0.0 200 / 41036.1 7.3-0.0
2016-Sep-02 13:00S 53°06' W 070°54'0 0.0 250 / 11035.7 8.1-0.0
2016-Sep-02 12:00S 53°06' W 070°54'0 0.0 250 / 51034.8 5.2-0.1
2016-Sep-02 11:00S 53°06' W 070°54'0 0.0 270 / 21034.2 5.2-0.2
2016-Sep-02 10:00S 53°06' W 070°54'0 0.0 240 / 31033.7 5.1-0.2
2016-Sep-02 09:00S 53°06' W 070°54'0 0.0 260 / 51033.0 5.2-0.0
2016-Sep-02 08:00S 53°06' W 070°54'0 0.0 250 / 31032.3 5.7 0.3
2016-Sep-02 07:00S 53°06' W 070°54'0 0.0 230 / 91031.5 6.3 0.5
2016-Sep-02 06:00S 53°06' W 070°54'0 0.0 240 / 111031.2 6.5 0.4
2016-Sep-02 05:00S 53°06' W 070°54'0 0.0 240 / 81030.9 6.4 0.5
2016-Sep-02 04:00S 53°06' W 070°54'0 0.0 260 / 71030.0 6.4 0.5
2016-Sep-02 03:00S 53°06' W 070°54'0 0.0 230 / 91029.1 6.7 0.7
2016-Sep-02 02:00S 53°06' W 070°54'0 0.0 240 / 111028.2 6.9 0.9
2016-Sep-02 01:00S 53°06' W 070°54'0 0.0 240 / 131027.2 6.9 1.1
2016-Sep-02 00:00S 53°06' W 070°54'0 0.0 250 / 101026.5 6.7 1.4
2016-Sep-01 23:00S 53°06' W 070°54'0 0.0 250 / 111025.7 6.9 1.5
2016-Sep-01 22:00S 53°06' W 070°54'0 0.0 250 / 131024.5 7.5 1.6
2016-Sep-01 21:00S 53°06' W 070°54'0 0.0 250 / 161023.4 8.1 1.6
2016-Sep-01 20:00S 53°06' W 070°54'0 0.0 250 / 151022.4 8.6 1.2
2016-Sep-01 19:00S 53°06' W 070°54'0 0.0 240 / 161021.3 8.5 0.9
2016-Sep-01 18:00S 53°06' W 070°54'0 0.0 240 / 171020.5 8.1 0.7
2016-Sep-01 17:00S 53°06' W 070°54'0 0.0 240 / 171019.4 8.2 0.3
2016-Sep-01 16:00S 53°06' W 070°54'0 0.0 240 / 171018.3 8.0 0.4
2016-Sep-01 15:00S 53°06' W 070°54'0 0.0 240 / 161017.2 8.1 0.3
2016-Sep-01 14:00S 53°06' W 070°54'0 0.0 250 / 161016.2 7.7 0.2
2016-Sep-01 13:00S 53°06' W 070°54'0 0.0 250 / 141015.2 7.1 0.3
2016-Sep-01 12:00S 53°06' W 070°54'0 0.0 240 / 131014.4 6.5 0.4
2016-Sep-01 11:00S 53°06' W 070°54'0 0.0 240 / 131013.4 6.3 0.1
2016-Sep-01 10:00S 53°06' W 070°54'0 0.0 250 / 131012.4 6.2-0.0
2016-Sep-01 09:00S 53°06' W 070°54'0 0.0 240 / 131011.8 6.5-0.0
2016-Sep-01 08:00S 53°06' W 070°54'0 0.0 230 / 121010.9 6.4 0.3
2016-Sep-01 07:00S 53°06' W 070°54'0 0.0 240 / 121009.9 6.3 0.2
2016-Sep-01 06:00S 53°06' W 070°54'0 0.0 250 / 141008.9 6.3 0.3
2016-Sep-01 05:00S 53°06' W 070°54'0 0.0 250 / 141008.1 6.2 0.4
2016-Sep-01 04:00S 53°06' W 070°54'0 0.0 260 / 71007.3 5.8 0.5
2016-Sep-01 03:00S 53°06' W 070°54'0 0.0 280 / 91006.8 5.3 1.0
2016-Sep-01 02:00S 53°06' W 070°54'0 0.0 270 / 151006.1 5.0 1.1
2016-Sep-01 01:00S 53°06' W 070°54'0 0.0 270 / 141005.6 4.9 0.7
2016-Sep-01 00:00S 53°06' W 070°54'0 0.0 280 / 111005.8 4.9-0.0
2016-Aug-31 23:00S 53°06' W 070°54'0 0.0 270 / 131005.5 5.4-0.0
2016-Aug-31 22:00S 53°06' W 070°54'0 0.0 280 / 121004.8 5.9 0.5
2016-Aug-31 21:00S 53°06' W 070°54'0 0.0 280 / 131004.3 6.4 0.7
2016-Aug-31 20:00S 53°06' W 070°54'0 0.0 270 / 161003.7 6.9 0.2
2016-Aug-31 19:00S 53°06' W 070°54'0 0.0 260 / 151003.2 7.5-1.4
2016-Aug-31 18:00S 53°06' W 070°54'0 0.0 250 / 161003.1 7.4-1.7
2016-Aug-31 17:00S 53°06' W 070°54'0 0.0 250 / 111003.1 6.7-0.3
2016-Aug-31 16:00S 53°06' W 070°54'0 0.0 250 / 111002.8 7.3-0.1
2016-Aug-31 15:00S 53°06' W 070°54'0 0.0 270 / 61002.5 7.5-0.2
2016-Aug-31 14:00S 53°06' W 070°54'0 0.0 290 / 61002.3 5.3-0.0
2016-Aug-31 13:00S 53°06' W 070°54'0 0.0 280 / 91001.8 3.9-0.2
2016-Aug-31 12:00S 53°06' W 070°54'0 0.0 280 / 101001.6 3.4-0.7
2016-Aug-31 11:00S 53°06' W 070°54'0 0.0 290 / 141001.5 3.0-1.6
2016-Aug-31 10:00S 53°06' W 070°54'0 0.0 280 / 121001.3 2.9-2.7
2016-Aug-31 09:00S 53°06' W 070°54'0 0.0 290 / 91000.8 2.6-3.6
2016-Aug-31 08:00S 53°06' W 070°54'0 0.0 280 / 81000.1 2.7-3.1
2016-Aug-31 07:00S 53°06' W 070°54'0 0.0 290 / 7999.7 2.5-1.6
2016-Aug-31 06:00S 53°06' W 070°54'0 0.0 280 / 8998.7 2.5-1.3
2016-Aug-31 05:00S 53°06' W 070°54'0 0.0 260 / 10997.3 2.8-1.1
2016-Aug-31 04:00S 53°06' W 070°54'0 0.0 260 / 7996.1 2.7-1.0
2016-Aug-31 03:00S 53°06' W 070°54'0 0.0 270 / 9994.6 2.8-1.0
2016-Aug-31 02:00S 53°06' W 070°54'0 0.0 260 / 17992.9 2.8-1.3
2016-Aug-31 01:00S 53°06' W 070°54'0 0.0 270 / 18991.2 2.8-1.4
2016-Aug-31 00:00S 53°06' W 070°54'0 0.0 270 / 18990.0 2.6-1.5
2016-Aug-30 23:00S 53°06' W 070°54'0 0.0 270 / 15989.4 2.4-2.0
2016-Aug-30 22:00S 53°06' W 070°54'0 0.0 270 / 20988.5 2.4-2.0
2016-Aug-30 21:00S 53°06' W 070°54'0 0.0 270 / 16988.2 2.9-2.1
2016-Aug-30 20:00S 53°06' W 070°54'0 0.0 270 / 18987.7 3.2-2.6
2016-Aug-30 19:00S 53°06' W 070°54'0 0.0 280 / 22986.7 3.6-2.8
2016-Aug-30 18:00S 53°06' W 070°54'0 0.0 280 / 26985.7 3.6-2.7
2016-Aug-30 17:00S 53°06' W 070°54'0 0.0 280 / 23985.3 4.0-2.7
2016-Aug-30 16:00S 53°06' W 070°54'0 0.0 270 / 22984.8 3.8-2.8
2016-Aug-30 15:00S 53°06' W 070°54'0 0.0 270 / 24983.9 3.4-3.0
2016-Aug-30 14:00S 53°06' W 070°54'0 0.0 280 / 22983.8 2.7-1.6
2016-Aug-30 13:00S 53°06' W 070°54'0 0.0 290 / 18983.8 1.4-1.2
2016-Aug-30 12:00S 53°06' W 070°54'0 0.0 290 / 20983.0 2.1-1.2
2016-Aug-30 11:00S 53°06' W 070°54'0 0.0 290 / 22982.2 2.1-1.4
2016-Aug-30 10:00S 53°06' W 070°54'0 0.0 300 / 23981.8 2.2-1.1
2016-Aug-30 09:00S 53°06' W 070°54'0 0.0 300 / 22981.6 2.2-1.3
2016-Aug-30 08:00S 53°06' W 070°54'0 0.0 300 / 18982.0 2.7-1.8
2016-Aug-30 07:00S 53°06' W 070°54'0 0.0 300 / 14982.2 3.0-1.2
2016-Aug-30 06:00S 53°06' W 070°54'0 0.0 300 / 15982.1 3.4-0.8
2016-Aug-30 05:00S 53°06' W 070°54'0 0.0 290 / 14981.8 3.6-0.9
2016-Aug-30 04:00S 53°06' W 070°54'0 0.0 280 / 23981.0 4.1-0.6
2016-Aug-30 03:00S 53°06' W 070°54'0 0.0 280 / 25980.2 4.8-0.0
2016-Aug-30 02:00S 53°06' W 070°54'0 0.0 280 / 28979.2 5.3 0.4
2016-Aug-30 01:00S 53°06' W 070°54'0 0.0 280 / 31977.7 6.1 0.6
2016-Aug-30 00:00S 53°06' W 070°54'0 0.0 290 / 22977.1 6.9 2.1
2016-Aug-29 23:00S 53°06' W 070°54'0 0.0 300 / 20975.9 7.8 2.3
2016-Aug-29 22:00S 53°06' W 070°54'0 0.0 320 / 11976.0 8.6 2.7
2016-Aug-29 21:00S 53°06' W 070°54'0 0.0 300 / 16975.0 9.5 2.7
2016-Aug-29 20:00S 53°06' W 070°54'0 0.0 300 / 19973.9 9.8 2.5
2016-Aug-29 19:00S 53°06' W 070°54'0 0.0 300 / 25973.7 10.8 2.6
2016-Aug-29 18:00S 53°06' W 070°54'0 0.0 300 / 24973.9 11.6 2.6
2016-Aug-29 12:00S 53°06' W 070°54'0 0.0 060 / 7983.7 6.0 3.5
2016-Aug-29 11:00S 53°06' W 070°54'0 0.0 030 / 7985.6 5.4 2.9
2016-Aug-29 10:00S 53°06' W 070°54'0 0.0 040 / 3987.7 5.4 3.3
2016-Aug-29 09:00S 53°06' W 070°54'0 0.0 050 / 2989.6 5.7 3.6
2016-Aug-29 08:00S 53°06' W 070°54'0 0.0 030 / 4991.6 5.7 3.7
2016-Aug-29 07:00S 53°06' W 070°54'0 0.0 030 / 4993.8 5.5 3.5
2016-Aug-29 06:00S 53°06' W 070°54'0 0.0 010 / 3995.3 5.6 3.5
2016-Aug-29 05:00S 53°06' W 070°54'0 0.0 020 / 5996.6 5.8 3.7
2016-Aug-29 04:00S 53°06' W 070°54'0 0.0 010 / 5997.8 5.7 3.8
2016-Aug-29 03:00S 53°06' W 070°54'0 0.0 360 / 5999.2 5.8 3.7
2016-Aug-29 02:00S 53°06' W 070°54'0 0.0 350 / 61000.3 5.7 3.8
2016-Aug-29 01:00S 53°06' W 070°54'0 0.0 350 / 91000.9 5.7 3.9
2016-Aug-29 00:00S 53°06' W 070°54'0 0.0 010 / 91001.6 5.8 4.2
2016-Aug-28 23:00S 53°06' W 070°54'0 0.0 010 / 101002.4 5.9 4.5
2016-Aug-28 22:00S 53°06' W 070°54'0 0.0 030 / 111002.9 6.5 5.0
2016-Aug-28 21:00S 53°06' W 070°54'0 0.0 030 / 91003.3 7.2 5.2
2016-Aug-28 20:00S 53°06' W 070°54'0 0.0 010 / 81003.7 7.5 4.7
2016-Aug-28 19:00S 53°06' W 070°54'0 0.0 020 / 91004.1 7.0 4.0
2016-Aug-28 18:00S 53°06' W 070°54'0 0.0 020 / 111004.6 7.1 2.7
2016-Aug-28 17:00S 53°06' W 070°54'0 0.0 010 / 101005.4 6.1 2.1
2016-Aug-28 16:00S 53°06' W 070°54'0 0.0 010 / 101005.9 5.0 2.3
2016-Aug-28 15:00S 53°06' W 070°54'0 0.0 010 / 81006.5 4.1 2.1
2016-Aug-28 14:00S 53°06' W 070°54'0 0.0 010 / 61007.1 3.6 1.7
2016-Aug-28 13:00S 53°06' W 070°54'0 0.0 010 / 31007.3 3.2 1.2
2016-Aug-28 12:00S 53°06' W 070°54'0 0.0 010 / 51007.3 3.0 0.8
2016-Aug-28 11:00S 53°06' W 070°54'0 0.0 010 / 51007.7 3.2 0.6
2016-Aug-28 10:00S 53°06' W 070°54'0 0.0 360 / 51008.0 3.2 0.5
2016-Aug-28 09:00S 53°06' W 070°54'0 0.0 010 / 71008.4 3.4 0.6
2016-Aug-28 08:00S 53°06' W 070°54'0 0.0 350 / 51009.1 3.8 0.9
2016-Aug-28 07:00S 53°06' W 070°54'0 0.0 010 / 71009.9 4.0 1.2
2016-Aug-28 06:00S 53°06' W 070°54'0 0.0 030 / 71010.5 4.1 1.6
2016-Aug-28 05:00S 53°06' W 070°54'0 0.0 030 / 71011.0 4.1 1.6
2016-Aug-28 04:00S 53°06' W 070°54'0 0.0 360 / 61011.7 4.7 1.9
2016-Aug-28 03:00S 53°06' W 070°54'0 0.0 360 / 71012.2 5.7 2.3
2016-Aug-28 02:00S 53°06' W 070°54'0 0.0 020 / 71012.6 6.2 3.1
2016-Aug-28 01:00S 53°06' W 070°54'0 0.0 020 / 61012.9 6.7 2.7
2016-Aug-28 00:00S 53°06' W 070°54'0 0.0 030 / 31013.0 6.8 3.4
2016-Aug-27 23:00S 53°06' W 070°54'0 0.0 020 / 41013.0 7.0 3.7
2016-Aug-27 22:00S 53°06' W 070°54'0 0.0 030 / 51013.1 7.7 3.3
2016-Aug-27 21:00S 53°06' W 070°54'0 0.0 050 / 71013.2 8.2 3.3
2016-Aug-27 20:00S 53°06' W 070°54'0 0.0 020 / 91013.3 8.7 2.2
2016-Aug-27 19:00S 53°06' W 070°54'0 0.0 350 / 101013.5 9.4 0.6
2016-Aug-27 18:00S 53°06' W 070°54'0 0.0 340 / 121013.9 8.6 0.4
2016-Aug-27 17:00S 53°06' W 070°54'0 0.0 340 / 101014.2 8.1 0.6
2016-Aug-27 16:00S 53°06' W 070°54'0 0.0 010 / 81014.2 7.3 0.2
2016-Aug-27 15:00S 53°06' W 070°54'0 0.0 040 / 71014.3 7.0 0.4
2016-Aug-27 14:00S 53°06' W 070°54'0 0.0 040 / 51014.5 4.3 0.7
2016-Aug-27 13:00S 53°06' W 070°54'0 0.0 040 / 71014.5 2.6 0.7
2016-Aug-27 12:00S 53°06' W 070°54'0 0.0 010 / 61014.3 2.5 0.3
2016-Aug-27 11:00S 53°06' W 070°54'0 0.0 020 / 31014.0 3.1 0.1
2016-Aug-27 10:00S 53°06' W 070°54'0 0.0 310 / 11013.9 2.9-0.1
2016-Aug-27 09:00S 53°06' W 070°54'0 0.0 010 / 21013.8 3.4 0.3
2016-Aug-27 08:00S 53°06' W 070°54'0 0.0 260 / 21013.8 3.7 0.4
2016-Aug-27 07:00S 53°06' W 070°54'0 0.0 300 / 61014.0 3.6 0.8
2016-Aug-27 06:00S 53°06' W 070°54'0 0.0 290 / 81014.0 3.4 0.6
2016-Aug-27 05:00S 53°06' W 070°54'0 0.0 290 / 81013.7 3.5 0.6
2016-Aug-27 04:00S 53°06' W 070°54'0 0.0 280 / 31013.7 4.2 0.4
2016-Aug-27 03:00S 53°06' W 070°54'0 0.0 290 / 11013.6 4.2 1.0
2016-Aug-27 02:00S 53°06' W 070°54'0 0.0 240 / 31013.5 4.6 1.5
2016-Aug-27 01:00S 53°06' W 070°54'0 0.0 280 / 31013.2 4.5 1.9
2016-Aug-27 00:00S 53°06' W 070°54'0 0.0 330 / 21012.8 5.4 2.6
2016-Aug-26 23:00S 53°06' W 070°54'0 0.0 310 / 31012.6 5.5 3.1
2016-Aug-26 22:00S 53°06' W 070°54'0 0.0 040 / 31012.3 6.2 2.9
2016-Aug-26 21:00S 53°06' W 070°54'0 0.0 080 / 41012.0 7.4 3.3
2016-Aug-26 20:00S 53°06' W 070°54'0 0.0 080 / 51011.8 7.3 3.1
2016-Aug-26 19:00S 53°06' W 070°54'0 0.0 080 / 51011.7 7.0 3.2
2016-Aug-26 18:00S 53°06' W 070°54'0 0.0 060 / 61011.6 6.3 2.8
2016-Aug-26 17:00S 53°06' W 070°54'0 0.0 060 / 51011.9 6.0 2.2
2016-Aug-26 16:00S 53°06' W 070°54'0 0.0 080 / 41011.9 7.3 2.4
2016-Aug-26 15:00S 53°06' W 070°54'0 0.0 080 / 21011.9 8.1 2.2
2016-Aug-26 14:00S 53°06' W 070°54'0 0.0 340 / 11011.7 7.6 1.3
2016-Aug-26 13:00S 53°06' W 070°54'0 0.0 300 / 51011.4 3.0-0.0
2016-Aug-26 12:00S 53°06' W 070°54'0 0.0 300 / 51010.8 1.5-0.6
2016-Aug-26 11:00S 53°06' W 070°54'0 0.0 300 / 51010.5 1.3-0.8
2016-Aug-26 10:00S 53°06' W 070°54'0 0.0 290 / 61010.2 1.4-0.7
2016-Aug-26 09:00S 53°06' W 070°54'0 0.0 290 / 61010.0 1.5-0.5
2016-Aug-26 08:00S 53°06' W 070°54'0 0.0 290 / 61010.0 1.6-0.4
2016-Aug-26 07:00S 53°06' W 070°54'0 0.0 290 / 51010.2 1.8-0.3
2016-Aug-26 06:00S 53°06' W 070°54'0 0.0 290 / 51010.1 2.0-0.1
2016-Aug-26 05:00S 53°06' W 070°54'0 0.0 290 / 41010.0 2.3-0.0
2016-Aug-26 04:00S 53°06' W 070°54'0 0.0 300 / 51009.8 2.7 0.1
2016-Aug-26 03:00S 53°06' W 070°54'0 0.0 300 / 61009.7 2.9 0.2
2016-Aug-26 02:00S 53°06' W 070°54'0 0.0 300 / 61009.6 3.3 0.4
2016-Aug-26 01:00S 53°06' W 070°54'0 0.0 300 / 51009.5 3.6 0.5
2016-Aug-26 00:00S 53°06' W 070°54'0 0.0 290 / 51009.2 4.1 0.6
2016-Aug-25 23:00S 53°06' W 070°54'0 0.0 080 / 21008.9 6.4 2.3
2016-Aug-25 22:00S 53°06' W 070°54'0 0.0 100 / 31008.7 8.0 2.6
2016-Aug-25 21:00S 53°06' W 070°54'0 0.0 110 / 31008.5 8.9 1.7
2016-Aug-25 20:00S 53°06' W 070°54'0 0.0 090 / 51008.1 9.8 2.3
2016-Aug-25 19:00S 53°06' W 070°54'0 0.0 080 / 51007.9 10.6 2.6
2016-Aug-25 18:00S 53°06' W 070°54'0 0.0 080 / 51008.0 10.5 2.6
2016-Aug-25 17:00S 53°06' W 070°54'0 0.0 130 / 41008.1 9.9 1.0
2016-Aug-25 16:00S 53°06' W 070°54'0 0.0 250 / 51008.0 9.0-0.0
2016-Aug-25 15:00S 53°06' W 070°54'0 0.0 240 / 51007.8 9.0 0.1
2016-Aug-25 14:00S 53°06' W 070°54'0 0.0 280 / 31007.5 8.7 0.7
2016-Aug-25 13:00S 53°06' W 070°54'0 0.0 260 / 51006.9 6.6 0.9
2016-Aug-25 12:00S 53°06' W 070°54'0 0.0 260 / 41006.4 4.7 1.2
2016-Aug-25 11:00S 53°06' W 070°54'0 0.0 290 / 81005.8 4.1 0.9
2016-Aug-25 10:00S 53°06' W 070°54'0 0.0 310 / 41005.5 4.5 0.7
2016-Aug-25 09:00S 53°06' W 070°54'0 0.0 330 / 41004.9 3.6 0.4
2016-Aug-25 08:00S 53°06' W 070°54'0 0.0 310 / 71004.6 5.4 0.6
2016-Aug-25 07:00S 53°06' W 070°54'0 0.0 330 / 91004.3 5.5 0.8
2016-Aug-25 06:00S 53°06' W 070°54'0 0.0 340 / 81004.3 5.0 0.6
2016-Aug-25 05:00S 53°06' W 070°54'0 0.0 310 / 91004.1 5.7 0.4
2016-Aug-25 04:00S 53°06' W 070°54'0 0.0 300 / 81004.0 5.8 0.4
2016-Aug-25 03:00S 53°06' W 070°54'0 0.0 300 / 71003.8 6.3 0.4
2016-Aug-25 02:00S 53°06' W 070°54'0 0.0 280 / 71003.6 7.1 0.6
2016-Aug-25 01:00S 53°06' W 070°54'0 0.0 100 / 31003.2 7.8 1.5
2016-Aug-25 00:00S 53°06' W 070°54'0 0.0 060 / 51002.9 7.5 2.6
2016-Aug-24 23:00S 53°06' W 070°54'0 0.0 340 / 21002.5 8.3 2.0
2016-Aug-24 22:00S 53°06' W 070°54'0 0.0 300 / 71002.1 8.0 1.9
2016-Aug-24 21:00S 53°06' W 070°54'0 0.0 310 / 71002.3 8.3 2.3
2016-Aug-24 20:00S 53°06' W 070°54'0 0.0 320 / 71002.3 8.7 2.8
2016-Aug-24 19:00S 53°06' W 070°54'0 0.0 040 / 41002.3 7.6 3.4
2016-Aug-24 18:00S 53°06' W 070°54'0 0.0 050 / 41002.6 8.2 3.4
2016-Aug-24 17:00S 53°06' W 070°54'0 0.0 050 / 101002.8 6.0 2.7
2016-Aug-24 16:00S 53°06' W 070°54'0 0.0 040 / 81002.9 5.5 1.9
2016-Aug-24 15:00S 53°06' W 070°54'   030 / 81003.1 5.0 1.2

Dump ship's entire track history